sensor_id;sensor_type;location;lat;lon;timestamp;P1;durP1;ratioP1;P2;durP2;ratioP2
15055;SDS011;7626;42.674;23.284;2023-02-15T00:01:23;27.27;;;23.73;;
15055;SDS011;7626;42.674;23.284;2023-02-15T00:03:51;27.63;;;24.17;;
15055;SDS011;7626;42.674;23.284;2023-02-15T00:06:19;29.33;;;25.03;;
15055;SDS011;7626;42.674;23.284;2023-02-15T00:09:05;26.97;;;24.00;;
15055;SDS011;7626;42.674;23.284;2023-02-15T00:11:33;27.63;;;24.03;;
15055;SDS011;7626;42.674;23.284;2023-02-15T00:14:15;28.53;;;24.57;;
15055;SDS011;7626;42.674;23.284;2023-02-15T00:16:45;27.00;;;23.80;;
15055;SDS011;7626;42.674;23.284;2023-02-15T00:19:14;26.33;;;23.53;;
15055;SDS011;7626;42.674;23.284;2023-02-15T00:21:43;25.80;;;22.97;;
15055;SDS011;7626;42.674;23.284;2023-02-15T00:24:12;29.77;;;24.10;;
15055;SDS011;7626;42.674;23.284;2023-02-15T00:26:42;28.13;;;24.10;;
15055;SDS011;7626;42.674;23.284;2023-02-15T00:29:13;27.77;;;24.03;;
15055;SDS011;7626;42.674;23.284;2023-02-15T00:31:45;29.23;;;24.50;;
15055;SDS011;7626;42.674;23.284;2023-02-15T00:34:13;29.57;;;23.83;;
15055;SDS011;7626;42.674;23.284;2023-02-15T00:36:45;29.00;;;23.87;;
15055;SDS011;7626;42.674;23.284;2023-02-15T00:39:13;26.43;;;23.57;;
15055;SDS011;7626;42.674;23.284;2023-02-15T00:41:42;25.97;;;22.53;;
15055;SDS011;7626;42.674;23.284;2023-02-15T00:44:11;27.30;;;22.67;;
15055;SDS011;7626;42.674;23.284;2023-02-15T00:46:40;28.20;;;23.73;;
15055;SDS011;7626;42.674;23.284;2023-02-15T00:49:08;26.17;;;23.27;;
15055;SDS011;7626;42.674;23.284;2023-02-15T00:51:36;28.43;;;24.50;;
15055;SDS011;7626;42.674;23.284;2023-02-15T00:54:07;27.20;;;24.23;;
15055;SDS011;7626;42.674;23.284;2023-02-15T00:56:38;26.53;;;23.70;;
15055;SDS011;7626;42.674;23.284;2023-02-15T00:59:07;26.33;;;23.40;;
15055;SDS011;7626;42.674;23.284;2023-02-15T01:01:37;26.97;;;23.30;;
15055;SDS011;7626;42.674;23.284;2023-02-15T01:04:05;27.33;;;23.53;;
15055;SDS011;7626;42.674;23.284;2023-02-15T01:06:32;26.10;;;23.27;;
15055;SDS011;7626;42.674;23.284;2023-02-15T01:09:00;26.90;;;23.73;;
15055;SDS011;7626;42.674;23.284;2023-02-15T01:11:28;26.17;;;22.63;;
15055;SDS011;7626;42.674;23.284;2023-02-15T01:13:57;26.20;;;23.40;;
15055;SDS011;7626;42.674;23.284;2023-02-15T01:16:26;25.87;;;22.47;;
15055;SDS011;7626;42.674;23.284;2023-02-15T01:19:00;26.30;;;23.17;;
15055;SDS011;7626;42.674;23.284;2023-02-15T01:21:29;25.73;;;22.40;;
15055;SDS011;7626;42.674;23.284;2023-02-15T01:24:00;25.77;;;22.97;;
15055;SDS011;7626;42.674;23.284;2023-02-15T01:26:28;26.07;;;23.13;;
15055;SDS011;7626;42.674;23.284;2023-02-15T01:28:56;25.30;;;22.60;;
15055;SDS011;7626;42.674;23.284;2023-02-15T01:31:24;26.23;;;23.07;;
15055;SDS011;7626;42.674;23.284;2023-02-15T01:34:00;25.17;;;22.47;;
15055;SDS011;7626;42.674;23.284;2023-02-15T01:36:30;25.17;;;22.17;;
15055;SDS011;7626;42.674;23.284;2023-02-15T01:39:01;25.47;;;22.50;;
15055;SDS011;7626;42.674;23.284;2023-02-15T01:41:30;25.30;;;22.60;;
15055;SDS011;7626;42.674;23.284;2023-02-15T01:43:58;26.13;;;23.33;;
15055;SDS011;7626;42.674;23.284;2023-02-15T01:46:29;24.93;;;22.23;;
15055;SDS011;7626;42.674;23.284;2023-02-15T01:49:05;25.50;;;22.23;;
15055;SDS011;7626;42.674;23.284;2023-02-15T01:51:39;23.57;;;21.10;;
15055;SDS011;7626;42.674;23.284;2023-02-15T01:54:11;25.03;;;22.33;;
15055;SDS011;7626;42.674;23.284;2023-02-15T01:56:45;25.40;;;22.70;;
15055;SDS011;7626;42.674;23.284;2023-02-15T01:59:16;25.33;;;22.27;;
15055;SDS011;7626;42.674;23.284;2023-02-15T02:01:47;25.57;;;22.80;;
15055;SDS011;7626;42.674;23.284;2023-02-15T02:04:18;25.37;;;22.43;;
15055;SDS011;7626;42.674;23.284;2023-02-15T02:06:57;23.97;;;21.20;;
15055;SDS011;7626;42.674;23.284;2023-02-15T02:09:27;24.50;;;21.90;;
15055;SDS011;7626;42.674;23.284;2023-02-15T02:11:55;25.03;;;21.67;;
15055;SDS011;7626;42.674;23.284;2023-02-15T02:14:22;25.00;;;22.50;;
15055;SDS011;7626;42.674;23.284;2023-02-15T02:16:56;25.27;;;22.23;;
15055;SDS011;7626;42.674;23.284;2023-02-15T02:23:06;24.03;;;21.53;;
15055;SDS011;7626;42.674;23.284;2023-02-15T02:32:18;24.17;;;21.67;;
15055;SDS011;7626;42.674;23.284;2023-02-15T02:35:07;26.73;;;22.07;;
15055;SDS011;7626;42.674;23.284;2023-02-15T02:37:43;24.13;;;21.53;;
15055;SDS011;7626;42.674;23.284;2023-02-15T02:40:19;25.53;;;21.73;;
15055;SDS011;7626;42.674;23.284;2023-02-15T02:42:58;24.43;;;21.83;;
15055;SDS011;7626;42.674;23.284;2023-02-15T02:45:32;25.80;;;23.10;;
15055;SDS011;7626;42.674;23.284;2023-02-15T02:48:05;22.50;;;20.10;;
15055;SDS011;7626;42.674;23.284;2023-02-15T02:50:41;24.30;;;21.70;;
15055;SDS011;7626;42.674;23.284;2023-02-15T02:53:09;24.93;;;21.60;;
15055;SDS011;7626;42.674;23.284;2023-02-15T02:55:39;24.47;;;21.87;;
15055;SDS011;7626;42.674;23.284;2023-02-15T02:58:13;23.07;;;20.60;;
15055;SDS011;7626;42.674;23.284;2023-02-15T03:00:48;23.50;;;20.97;;
15055;SDS011;7626;42.674;23.284;2023-02-15T03:03:20;23.17;;;20.67;;
15055;SDS011;7626;42.674;23.284;2023-02-15T03:05:57;24.03;;;21.37;;
15055;SDS011;7626;42.674;23.284;2023-02-15T03:08:29;24.50;;;21.17;;
15055;SDS011;7626;42.674;23.284;2023-02-15T03:11:03;23.87;;;21.27;;
15055;SDS011;7626;42.674;23.284;2023-02-15T03:13:32;23.47;;;20.63;;
15055;SDS011;7626;42.674;23.284;2023-02-15T03:16:01;23.00;;;20.60;;
15055;SDS011;7626;42.674;23.284;2023-02-15T03:18:50;22.77;;;20.33;;
15055;SDS011;7626;42.674;23.284;2023-02-15T03:21:26;22.60;;;20.30;;
15055;SDS011;7626;42.674;23.284;2023-02-15T03:24:00;22.03;;;19.63;;
15055;SDS011;7626;42.674;23.284;2023-02-15T03:26:33;21.57;;;19.37;;
15055;SDS011;7626;42.674;23.284;2023-02-15T03:29:03;22.67;;;20.33;;
15055;SDS011;7626;42.674;23.284;2023-02-15T03:31:36;24.20;;;21.60;;
15055;SDS011;7626;42.674;23.284;2023-02-15T03:34:11;23.47;;;20.93;;
15055;SDS011;7626;42.674;23.284;2023-02-15T03:36:45;23.40;;;20.67;;
15055;SDS011;7626;42.674;23.284;2023-02-15T03:39:20;23.67;;;21.17;;
15055;SDS011;7626;42.674;23.284;2023-02-15T03:41:58;23.80;;;21.20;;
15055;SDS011;7626;42.674;23.284;2023-02-15T03:44:32;22.90;;;20.50;;
15055;SDS011;7626;42.674;23.284;2023-02-15T03:47:11;21.93;;;19.53;;
15055;SDS011;7626;42.674;23.284;2023-02-15T03:49:44;22.57;;;20.27;;
15055;SDS011;7626;42.674;23.284;2023-02-15T03:52:19;23.40;;;20.90;;
15055;SDS011;7626;42.674;23.284;2023-02-15T03:54:47;22.53;;;20.13;;
15055;SDS011;7626;42.674;23.284;2023-02-15T03:57:18;22.83;;;20.43;;
15055;SDS011;7626;42.674;23.284;2023-02-15T04:00:09;22.63;;;20.30;;
15055;SDS011;7626;42.674;23.284;2023-02-15T04:03:04;22.90;;;20.40;;
15055;SDS011;7626;42.674;23.284;2023-02-15T04:05:40;22.50;;;20.13;;
15055;SDS011;7626;42.674;23.284;2023-02-15T04:08:10;23.73;;;20.27;;
15055;SDS011;7626;42.674;23.284;2023-02-15T04:10:39;21.93;;;19.63;;
15055;SDS011;7626;42.674;23.284;2023-02-15T04:13:23;22.73;;;20.33;;
15055;SDS011;7626;42.674;23.284;2023-02-15T04:15:53;22.27;;;19.97;;
15055;SDS011;7626;42.674;23.284;2023-02-15T04:18:28;21.93;;;19.73;;
15055;SDS011;7626;42.674;23.284;2023-02-15T04:21:12;22.60;;;20.10;;
15055;SDS011;7626;42.674;23.284;2023-02-15T04:24:03;21.77;;;19.57;;
15055;SDS011;7626;42.674;23.284;2023-02-15T04:26:49;22.50;;;20.13;;
15055;SDS011;7626;42.674;23.284;2023-02-15T04:29:19;22.50;;;19.80;;
15055;SDS011;7626;42.674;23.284;2023-02-15T04:31:47;23.57;;;20.53;;
15055;SDS011;7626;42.674;23.284;2023-02-15T04:34:14;22.40;;;19.43;;
15055;SDS011;7626;42.674;23.284;2023-02-15T04:36:42;21.37;;;19.13;;
15055;SDS011;7626;42.674;23.284;2023-02-15T04:39:13;21.50;;;19.20;;
15055;SDS011;7626;42.674;23.284;2023-02-15T04:41:42;22.90;;;20.50;;
15055;SDS011;7626;42.674;23.284;2023-02-15T04:44:11;22.53;;;20.13;;
15055;SDS011;7626;42.674;23.284;2023-02-15T04:46:39;22.90;;;19.53;;
15055;SDS011;7626;42.674;23.284;2023-02-15T04:49:08;23.27;;;20.87;;
15055;SDS011;7626;42.674;23.284;2023-02-15T04:51:35;22.30;;;20.00;;
15055;SDS011;7626;42.674;23.284;2023-02-15T04:54:03;23.63;;;21.13;;
15055;SDS011;7626;42.674;23.284;2023-02-15T04:56:31;21.90;;;19.60;;
15055;SDS011;7626;42.674;23.284;2023-02-15T04:59:01;22.27;;;19.77;;
15055;SDS011;7626;42.674;23.284;2023-02-15T05:01:27;23.03;;;20.63;;
15055;SDS011;7626;42.674;23.284;2023-02-15T05:03:55;24.07;;;21.57;;
15055;SDS011;7626;42.674;23.284;2023-02-15T05:06:23;22.43;;;20.03;;
15055;SDS011;7626;42.674;23.284;2023-02-15T05:08:51;23.90;;;21.40;;
15055;SDS011;7626;42.674;23.284;2023-02-15T05:11:19;23.17;;;20.67;;
15055;SDS011;7626;42.674;23.284;2023-02-15T05:13:48;23.57;;;21.10;;
15055;SDS011;7626;42.674;23.284;2023-02-15T05:16:17;22.90;;;20.10;;
15055;SDS011;7626;42.674;23.284;2023-02-15T05:18:44;23.40;;;20.87;;
15055;SDS011;7626;42.674;23.284;2023-02-15T05:21:11;23.33;;;20.87;;
15055;SDS011;7626;42.674;23.284;2023-02-15T05:23:44;22.90;;;20.57;;
15055;SDS011;7626;42.674;23.284;2023-02-15T05:26:14;22.60;;;20.13;;
15055;SDS011;7626;42.674;23.284;2023-02-15T05:29:04;24.37;;;21.03;;
15055;SDS011;7626;42.674;23.284;2023-02-15T05:31:31;23.10;;;20.23;;
15055;SDS011;7626;42.674;23.284;2023-02-15T05:34:00;23.07;;;20.67;;
15055;SDS011;7626;42.674;23.284;2023-02-15T05:36:27;23.20;;;20.70;;
15055;SDS011;7626;42.674;23.284;2023-02-15T05:38:55;24.30;;;21.70;;
15055;SDS011;7626;42.674;23.284;2023-02-15T05:41:22;22.97;;;20.57;;
15055;SDS011;7626;42.674;23.284;2023-02-15T05:43:54;24.90;;;20.97;;
15055;SDS011;7626;42.674;23.284;2023-02-15T05:46:24;22.83;;;20.43;;
15055;SDS011;7626;42.674;23.284;2023-02-15T05:48:54;27.47;;;20.17;;
15055;SDS011;7626;42.674;23.284;2023-02-15T05:51:21;27.07;;;20.73;;
15055;SDS011;7626;42.674;23.284;2023-02-15T05:53:52;29.77;;;20.97;;
15055;SDS011;7626;42.674;23.284;2023-02-15T05:56:20;28.80;;;21.20;;
15055;SDS011;7626;42.674;23.284;2023-02-15T05:58:48;29.73;;;20.50;;
15055;SDS011;7626;42.674;23.284;2023-02-15T06:01:16;26.60;;;20.57;;
15055;SDS011;7626;42.674;23.284;2023-02-15T06:03:49;25.93;;;20.60;;
15055;SDS011;7626;42.674;23.284;2023-02-15T06:06:16;28.07;;;21.27;;
15055;SDS011;7626;42.674;23.284;2023-02-15T06:08:45;23.50;;;19.73;;
15055;SDS011;7626;42.674;23.284;2023-02-15T06:11:13;26.43;;;20.87;;
15055;SDS011;7626;42.674;23.284;2023-02-15T06:13:39;25.90;;;21.10;;
15055;SDS011;7626;42.674;23.284;2023-02-15T06:16:07;23.83;;;20.33;;
15055;SDS011;7626;42.674;23.284;2023-02-15T06:18:34;22.93;;;20.13;;
15055;SDS011;7626;42.674;23.284;2023-02-15T06:21:03;24.83;;;20.47;;
15055;SDS011;7626;42.674;23.284;2023-02-15T06:23:30;24.07;;;20.87;;
15055;SDS011;7626;42.674;23.284;2023-02-15T06:25:57;23.87;;;21.27;;
15055;SDS011;7626;42.674;23.284;2023-02-15T06:28:24;22.77;;;20.37;;
15055;SDS011;7626;42.674;23.284;2023-02-15T06:30:53;24.03;;;20.73;;
15055;SDS011;7626;42.674;23.284;2023-02-15T06:33:19;22.40;;;20.00;;
15055;SDS011;7626;42.674;23.284;2023-02-15T06:35:46;22.93;;;19.83;;
15055;SDS011;7626;42.674;23.284;2023-02-15T06:38:14;22.97;;;20.43;;
15055;SDS011;7626;42.674;23.284;2023-02-15T06:40:43;22.63;;;19.93;;
15055;SDS011;7626;42.674;23.284;2023-02-15T06:43:12;21.97;;;19.60;;
15055;SDS011;7626;42.674;23.284;2023-02-15T06:45:38;22.20;;;19.90;;
15055;SDS011;7626;42.674;23.284;2023-02-15T06:48:07;21.77;;;19.43;;
15055;SDS011;7626;42.674;23.284;2023-02-15T06:50:34;21.33;;;18.93;;
15055;SDS011;7626;42.674;23.284;2023-02-15T06:53:02;22.17;;;19.87;;
15055;SDS011;7626;42.674;23.284;2023-02-15T06:55:32;20.80;;;18.50;;
15055;SDS011;7626;42.674;23.284;2023-02-15T06:58:00;22.33;;;19.00;;
15055;SDS011;7626;42.674;23.284;2023-02-15T07:00:27;21.53;;;19.33;;
15055;SDS011;7626;42.674;23.284;2023-02-15T07:02:55;21.07;;;18.53;;
15055;SDS011;7626;42.674;23.284;2023-02-15T07:05:23;20.37;;;18.17;;
15055;SDS011;7626;42.674;23.284;2023-02-15T07:07:56;20.73;;;18.50;;
15055;SDS011;7626;42.674;23.284;2023-02-15T07:10:25;20.47;;;18.37;;
15055;SDS011;7626;42.674;23.284;2023-02-15T07:12:55;22.33;;;18.30;;
15055;SDS011;7626;42.674;23.284;2023-02-15T07:15:21;19.93;;;17.87;;
15055;SDS011;7626;42.674;23.284;2023-02-15T07:17:52;19.07;;;17.07;;
15055;SDS011;7626;42.674;23.284;2023-02-15T07:20:20;19.63;;;17.53;;
15055;SDS011;7626;42.674;23.284;2023-02-15T07:22:52;19.77;;;16.97;;
15055;SDS011;7626;42.674;23.284;2023-02-15T07:25:22;19.77;;;17.60;;
15055;SDS011;7626;42.674;23.284;2023-02-15T07:27:56;20.23;;;18.13;;
15055;SDS011;7626;42.674;23.284;2023-02-15T07:30:23;19.80;;;17.70;;
15055;SDS011;7626;42.674;23.284;2023-02-15T07:32:54;19.90;;;17.80;;
15055;SDS011;7626;42.674;23.284;2023-02-15T07:35:46;19.83;;;17.70;;
15055;SDS011;7626;42.674;23.284;2023-02-15T07:38:13;19.10;;;17.10;;
15055;SDS011;7626;42.674;23.284;2023-02-15T07:40:40;19.60;;;17.50;;
15055;SDS011;7626;42.674;23.284;2023-02-15T07:43:09;18.33;;;16.33;;
15055;SDS011;7626;42.674;23.284;2023-02-15T07:45:38;19.03;;;17.03;;
15055;SDS011;7626;42.674;23.284;2023-02-15T07:48:08;19.43;;;17.37;;
15055;SDS011;7626;42.674;23.284;2023-02-15T07:50:35;17.10;;;15.17;;
15055;SDS011;7626;42.674;23.284;2023-02-15T07:53:03;18.37;;;16.40;;
15055;SDS011;7626;42.674;23.284;2023-02-15T07:55:30;18.33;;;16.27;;
15055;SDS011;7626;42.674;23.284;2023-02-15T07:57:58;18.60;;;16.17;;
15055;SDS011;7626;42.674;23.284;2023-02-15T08:00:28;19.17;;;16.37;;
15055;SDS011;7626;42.674;23.284;2023-02-15T08:03:16;18.70;;;16.53;;
15055;SDS011;7626;42.674;23.284;2023-02-15T08:05:44;18.87;;;16.10;;
15055;SDS011;7626;42.674;23.284;2023-02-15T08:08:11;17.50;;;15.57;;
15055;SDS011;7626;42.674;23.284;2023-02-15T08:10:59;17.53;;;15.70;;
15055;SDS011;7626;42.674;23.284;2023-02-15T08:13:45;17.30;;;15.33;;
15055;SDS011;7626;42.674;23.284;2023-02-15T08:16:24;17.93;;;15.17;;
15055;SDS011;7626;42.674;23.284;2023-02-15T08:18:54;19.77;;;15.87;;
15055;SDS011;7626;42.674;23.284;2023-02-15T08:21:24;18.50;;;14.83;;
15055;SDS011;7626;42.674;23.284;2023-02-15T08:23:53;17.37;;;15.47;;
15055;SDS011;7626;42.674;23.284;2023-02-15T08:26:21;17.10;;;15.30;;
15055;SDS011;7626;42.674;23.284;2023-02-15T08:28:51;17.53;;;14.87;;
15055;SDS011;7626;42.674;23.284;2023-02-15T08:31:19;17.40;;;15.33;;
15055;SDS011;7626;42.674;23.284;2023-02-15T08:33:49;16.73;;;14.17;;
15055;SDS011;7626;42.674;23.284;2023-02-15T08:36:18;17.23;;;15.43;;
15055;SDS011;7626;42.674;23.284;2023-02-15T08:38:47;17.90;;;15.33;;
15055;SDS011;7626;42.674;23.284;2023-02-15T08:41:16;17.67;;;15.87;;
15055;SDS011;7626;42.674;23.284;2023-02-15T08:43:47;17.53;;;15.53;;
15055;SDS011;7626;42.674;23.284;2023-02-15T08:46:17;17.47;;;15.67;;
15055;SDS011;7626;42.674;23.284;2023-02-15T08:48:45;16.20;;;14.60;;
15055;SDS011;7626;42.674;23.284;2023-02-15T08:51:17;19.50;;;15.83;;
15055;SDS011;7626;42.674;23.284;2023-02-15T08:53:46;19.73;;;15.63;;
15055;SDS011;7626;42.674;23.284;2023-02-15T08:56:17;16.83;;;15.10;;
15055;SDS011;7626;42.674;23.284;2023-02-15T08:58:45;16.67;;;14.93;;
15055;SDS011;7626;42.674;23.284;2023-02-15T09:01:14;18.63;;;15.37;;
15055;SDS011;7626;42.674;23.284;2023-02-15T09:03:44;19.17;;;15.33;;
15055;SDS011;7626;42.674;23.284;2023-02-15T09:06:15;17.93;;;16.07;;
15055;SDS011;7626;42.674;23.284;2023-02-15T09:08:44;17.50;;;15.67;;
15055;SDS011;7626;42.674;23.284;2023-02-15T09:11:13;17.87;;;15.97;;
15055;SDS011;7626;42.674;23.284;2023-02-15T09:13:49;16.97;;;15.17;;
15055;SDS011;7626;42.674;23.284;2023-02-15T09:16:19;17.27;;;15.03;;
15055;SDS011;7626;42.674;23.284;2023-02-15T09:18:48;18.67;;;15.63;;
15055;SDS011;7626;42.674;23.284;2023-02-15T09:21:19;19.03;;;16.00;;
15055;SDS011;7626;42.674;23.284;2023-02-15T09:23:49;18.60;;;16.60;;
15055;SDS011;7626;42.674;23.284;2023-02-15T09:26:18;19.43;;;17.33;;
15055;SDS011;7626;42.674;23.284;2023-02-15T09:28:51;21.67;;;18.57;;
15055;SDS011;7626;42.674;23.284;2023-02-15T09:31:21;19.73;;;17.63;;
15055;SDS011;7626;42.674;23.284;2023-02-15T09:33:50;20.33;;;17.93;;
15055;SDS011;7626;42.674;23.284;2023-02-15T09:36:21;21.80;;;17.40;;
15055;SDS011;7626;42.674;23.284;2023-02-15T09:38:52;19.37;;;17.30;;
15055;SDS011;7626;42.674;23.284;2023-02-15T09:41:30;21.23;;;18.53;;
15055;SDS011;7626;42.674;23.284;2023-02-15T09:44:22;19.73;;;17.63;;
15055;SDS011;7626;42.674;23.284;2023-02-15T09:47:13;20.40;;;18.20;;
15055;SDS011;7626;42.674;23.284;2023-02-15T09:50:03;18.73;;;16.80;;
15055;SDS011;7626;42.674;23.284;2023-02-15T09:52:44;20.57;;;18.37;;
15055;SDS011;7626;42.674;23.284;2023-02-15T09:55:32;20.97;;;18.03;;
15055;SDS011;7626;42.674;23.284;2023-02-15T09:58:12;19.73;;;17.60;;
15055;SDS011;7626;42.674;23.284;2023-02-15T10:00:54;19.73;;;17.63;;
15055;SDS011;7626;42.674;23.284;2023-02-15T10:03:33;19.03;;;17.00;;
15055;SDS011;7626;42.674;23.284;2023-02-15T10:06:17;20.60;;;18.40;;
15055;SDS011;7626;42.674;23.284;2023-02-15T10:09:02;22.37;;;17.47;;
15055;SDS011;7626;42.674;23.284;2023-02-15T10:11:45;20.53;;;17.90;;
15055;SDS011;7626;42.674;23.284;2023-02-15T10:17:26;20.00;;;17.73;;
15055;SDS011;7626;42.674;23.284;2023-02-15T10:20:08;21.10;;;18.23;;
15055;SDS011;7626;42.674;23.284;2023-02-15T10:22:56;20.27;;;18.17;;
15055;SDS011;7626;42.674;23.284;2023-02-15T10:25:45;20.47;;;17.80;;
15055;SDS011;7626;42.674;23.284;2023-02-15T10:28:18;21.70;;;18.80;;
15055;SDS011;7626;42.674;23.284;2023-02-15T10:30:48;20.77;;;18.53;;
15055;SDS011;7626;42.674;23.284;2023-02-15T10:33:24;21.30;;;19.00;;
15055;SDS011;7626;42.674;23.284;2023-02-15T10:36:07;21.17;;;18.93;;
15055;SDS011;7626;42.674;23.284;2023-02-15T10:38:54;20.03;;;17.93;;
15055;SDS011;7626;42.674;23.284;2023-02-15T10:41:31;19.57;;;17.23;;
15055;SDS011;7626;42.674;23.284;2023-02-15T10:44:13;20.03;;;17.93;;
15055;SDS011;7626;42.674;23.284;2023-02-15T10:50:03;21.60;;;18.30;;
15055;SDS011;7626;42.674;23.284;2023-02-15T10:52:42;21.73;;;19.43;;
15055;SDS011;7626;42.674;23.284;2023-02-15T10:55:23;20.90;;;18.33;;
15055;SDS011;7626;42.674;23.284;2023-02-15T10:58:08;20.87;;;18.67;;
15055;SDS011;7626;42.674;23.284;2023-02-15T11:00:45;19.10;;;17.10;;
15055;SDS011;7626;42.674;23.284;2023-02-15T11:03:31;20.37;;;18.17;;
15055;SDS011;7626;42.674;23.284;2023-02-15T11:06:07;20.10;;;17.90;;
15055;SDS011;7626;42.674;23.284;2023-02-15T11:08:38;21.17;;;18.80;;
15055;SDS011;7626;42.674;23.284;2023-02-15T11:11:09;20.40;;;18.20;;
15055;SDS011;7626;42.674;23.284;2023-02-15T11:13:44;21.70;;;18.63;;
15055;SDS011;7626;42.674;23.284;2023-02-15T11:16:16;20.93;;;18.10;;
15055;SDS011;7626;42.674;23.284;2023-02-15T11:18:47;20.83;;;18.30;;
15055;SDS011;7626;42.674;23.284;2023-02-15T11:21:20;20.63;;;18.43;;
15055;SDS011;7626;42.674;23.284;2023-02-15T11:23:50;20.33;;;18.20;;
15055;SDS011;7626;42.674;23.284;2023-02-15T11:26:19;22.97;;;18.87;;
15055;SDS011;7626;42.674;23.284;2023-02-15T11:28:56;20.00;;;17.77;;
15055;SDS011;7626;42.674;23.284;2023-02-15T11:31:26;21.70;;;18.60;;
15055;SDS011;7626;42.674;23.284;2023-02-15T11:34:05;21.50;;;18.40;;
15055;SDS011;7626;42.674;23.284;2023-02-15T11:36:45;20.93;;;18.07;;
15055;SDS011;7626;42.674;23.284;2023-02-15T11:39:17;20.23;;;18.13;;
15055;SDS011;7626;42.674;23.284;2023-02-15T11:41:46;21.50;;;19.30;;
15055;SDS011;7626;42.674;23.284;2023-02-15T11:44:21;22.10;;;19.70;;
15055;SDS011;7626;42.674;23.284;2023-02-15T11:46:52;23.00;;;18.80;;
15055;SDS011;7626;42.674;23.284;2023-02-15T11:49:21;21.57;;;19.30;;
15055;SDS011;7626;42.674;23.284;2023-02-15T11:51:52;21.20;;;18.93;;
15055;SDS011;7626;42.674;23.284;2023-02-15T11:54:25;21.13;;;18.83;;
15055;SDS011;7626;42.674;23.284;2023-02-15T11:57:01;20.73;;;18.57;;
15055;SDS011;7626;42.674;23.284;2023-02-15T11:59:40;21.17;;;19.03;;
15055;SDS011;7626;42.674;23.284;2023-02-15T12:02:15;20.90;;;18.80;;
15055;SDS011;7626;42.674;23.284;2023-02-15T12:04:46;20.97;;;18.87;;
15055;SDS011;7626;42.674;23.284;2023-02-15T12:07:20;21.97;;;19.43;;
15055;SDS011;7626;42.674;23.284;2023-02-15T12:09:52;21.23;;;19.03;;
15055;SDS011;7626;42.674;23.284;2023-02-15T12:12:27;21.37;;;18.97;;
15055;SDS011;7626;42.674;23.284;2023-02-15T12:15:00;21.37;;;19.13;;
15055;SDS011;7626;42.674;23.284;2023-02-15T12:17:31;20.80;;;18.63;;
15055;SDS011;7626;42.674;23.284;2023-02-15T12:20:02;26.93;;;20.93;;
15055;SDS011;7626;42.674;23.284;2023-02-15T12:22:35;21.57;;;19.33;;
15055;SDS011;7626;42.674;23.284;2023-02-15T12:25:19;22.23;;;19.03;;
15055;SDS011;7626;42.674;23.284;2023-02-15T12:27:51;21.60;;;19.30;;
15055;SDS011;7626;42.674;23.284;2023-02-15T12:30:21;21.53;;;19.43;;
15055;SDS011;7626;42.674;23.284;2023-02-15T12:32:56;22.67;;;19.60;;
15055;SDS011;7626;42.674;23.284;2023-02-15T12:35:32;21.63;;;19.20;;
15055;SDS011;7626;42.674;23.284;2023-02-15T12:38:03;22.97;;;19.67;;
15055;SDS011;7626;42.674;23.284;2023-02-15T12:40:33;21.77;;;19.53;;
15055;SDS011;7626;42.674;23.284;2023-02-15T12:43:02;21.83;;;19.30;;
15055;SDS011;7626;42.674;23.284;2023-02-15T12:45:36;22.07;;;19.43;;
15055;SDS011;7626;42.674;23.284;2023-02-15T12:48:09;21.80;;;19.23;;
15055;SDS011;7626;42.674;23.284;2023-02-15T12:50:45;22.17;;;19.93;;
15055;SDS011;7626;42.674;23.284;2023-02-15T12:53:14;21.60;;;19.30;;
15055;SDS011;7626;42.674;23.284;2023-02-15T12:55:53;21.57;;;19.27;;
15055;SDS011;7626;42.674;23.284;2023-02-15T12:58:23;22.73;;;19.83;;
15055;SDS011;7626;42.674;23.284;2023-02-15T13:01:11;21.33;;;19.17;;
15055;SDS011;7626;42.674;23.284;2023-02-15T13:03:54;21.30;;;19.10;;
15055;SDS011;7626;42.674;23.284;2023-02-15T13:06:24;21.37;;;19.13;;
15055;SDS011;7626;42.674;23.284;2023-02-15T13:08:54;25.57;;;20.63;;
15055;SDS011;7626;42.674;23.284;2023-02-15T13:11:25;21.80;;;19.53;;
15055;SDS011;7626;42.674;23.284;2023-02-15T13:14:01;21.47;;;19.20;;
15055;SDS011;7626;42.674;23.284;2023-02-15T13:16:32;22.43;;;20.03;;
15055;SDS011;7626;42.674;23.284;2023-02-15T13:19:08;22.87;;;20.40;;
15055;SDS011;7626;42.674;23.284;2023-02-15T13:21:41;21.17;;;18.97;;
15055;SDS011;7626;42.674;23.284;2023-02-15T13:24:18;25.00;;;20.47;;
15055;SDS011;7626;42.674;23.284;2023-02-15T13:26:55;23.40;;;21.00;;
15055;SDS011;7626;42.674;23.284;2023-02-15T13:29:25;22.73;;;19.93;;
15055;SDS011;7626;42.674;23.284;2023-02-15T13:32:05;22.10;;;19.70;;
15055;SDS011;7626;42.674;23.284;2023-02-15T13:34:39;21.73;;;19.43;;
15055;SDS011;7626;42.674;23.284;2023-02-15T13:37:12;22.20;;;19.37;;
15055;SDS011;7626;42.674;23.284;2023-02-15T13:39:46;21.47;;;19.17;;
15055;SDS011;7626;42.674;23.284;2023-02-15T13:42:20;22.27;;;18.73;;
15055;SDS011;7626;42.674;23.284;2023-02-15T13:44:54;22.90;;;19.37;;
15055;SDS011;7626;42.674;23.284;2023-02-15T13:47:39;21.13;;;18.63;;
15055;SDS011;7626;42.674;23.284;2023-02-15T13:50:20;20.37;;;18.27;;
15055;SDS011;7626;42.674;23.284;2023-02-15T13:53:39;23.10;;;19.20;;
15055;SDS011;7626;42.674;23.284;2023-02-15T13:56:19;21.33;;;19.03;;
15055;SDS011;7626;42.674;23.284;2023-02-15T14:02:18;22.37;;;19.50;;
15055;SDS011;7626;42.674;23.284;2023-02-15T14:05:09;21.93;;;19.63;;
15055;SDS011;7626;42.674;23.284;2023-02-15T14:07:53;23.13;;;20.23;;
15055;SDS011;7626;42.674;23.284;2023-02-15T14:10:35;23.20;;;20.70;;
15055;SDS011;7626;42.674;23.284;2023-02-15T14:16:19;22.37;;;19.90;;
15055;SDS011;7626;42.674;23.284;2023-02-15T14:18:54;22.17;;;19.87;;
15055;SDS011;7626;42.674;23.284;2023-02-15T14:21:31;21.80;;;19.50;;
15055;SDS011;7626;42.674;23.284;2023-02-15T14:24:09;22.27;;;19.87;;
15055;SDS011;7626;42.674;23.284;2023-02-15T14:27:15;21.90;;;19.53;;
15055;SDS011;7626;42.674;23.284;2023-02-15T14:29:53;21.70;;;19.40;;
15055;SDS011;7626;42.674;23.284;2023-02-15T14:32:26;23.93;;;20.87;;
15055;SDS011;7626;42.674;23.284;2023-02-15T14:34:59;22.80;;;20.30;;
15055;SDS011;7626;42.674;23.284;2023-02-15T14:37:33;22.93;;;20.37;;
15055;SDS011;7626;42.674;23.284;2023-02-15T14:40:11;23.37;;;20.43;;
15055;SDS011;7626;42.674;23.284;2023-02-15T14:43:05;23.90;;;20.90;;
15055;SDS011;7626;42.674;23.284;2023-02-15T14:45:39;23.00;;;20.50;;
15055;SDS011;7626;42.674;23.284;2023-02-15T14:48:16;25.97;;;20.57;;
15055;SDS011;7626;42.674;23.284;2023-02-15T14:50:52;25.00;;;20.90;;
15055;SDS011;7626;42.674;23.284;2023-02-15T14:56:23;25.87;;;22.33;;
15055;SDS011;7626;42.674;23.284;2023-02-15T14:59:00;23.67;;;21.17;;
15055;SDS011;7626;42.674;23.284;2023-02-15T15:01:51;25.07;;;22.37;;
15055;SDS011;7626;42.674;23.284;2023-02-15T15:04:25;26.20;;;21.03;;
15055;SDS011;7626;42.674;23.284;2023-02-15T15:06:59;26.10;;;21.87;;
15055;SDS011;7626;42.674;23.284;2023-02-15T15:09:34;22.90;;;20.50;;
15055;SDS011;7626;42.674;23.284;2023-02-15T15:12:15;23.20;;;20.77;;
15055;SDS011;7626;42.674;23.284;2023-02-15T15:15:11;24.00;;;20.30;;
15055;SDS011;7626;42.674;23.284;2023-02-15T15:17:51;22.70;;;20.17;;
15055;SDS011;7626;42.674;23.284;2023-02-15T15:20:40;24.03;;;20.47;;
15055;SDS011;7626;42.674;23.284;2023-02-15T15:23:36;24.00;;;21.27;;